Terminal Aerodrome Forecast
Issued by NWS Duluth, MN

Home | Current Version | Previous Version | Text Only | Print | Product List | Glossary On
Versions: 1 2 3 4 5 6 7 8 9 10 11 12 13 14 15 16 17 18 19 20 21 22 23 24
000
FTUS43 KDLH 292300 RRA
TAFINL
TAF
KINL 292341Z 3000/3024 00000KT P6SM VCSH FEW018 BKN035
      TEMPO 3000/3002 5SM TSRA BKN015CB OVC035
     FM300300 35004KT 2SM BR OVC010
     FM300600 VRB03KT 4SM BR BKN012
     FM301200 01005KT P6SM BKN005
     FM301500 04005KT P6SM BKN015
     FM301700 05005KT P6SM SCT035=

USA.gov is the U.S. government's official web portal to all federal, state and local government web resources and services.